Airfield :
LOGIN :

Register | Disclaimer

   EN    FR    IT 

 










Legend :    VFR   Marginal VFR   IFR   Intensive IFR   Very Intensive IFR
Visi :
Ceiling :
>= 8 km
>= 3000ft
5 to 8 km
1000 to 3000 ft
1500m to 5 km
500 to 1000 ft
800 to 1500m
200 to 500 ft
< 800m
< 200 ft
Symbols :   Thunderstorms  Fog  Heavy snow  Heavy precipitations  Wind > 20 kt
SIGMETs :     Misc.  Thunderstorms  Icing  Turbulence  Mountain Waves  Volcanic Ashes






- Airport Elevation : 388 ft
- IATA code : QYR


LFQB - Troyes Barberey

CURRENT METAR :
  • 280830Z AUTO 19005KT 9000 -RA BKN008/// OVC016/// //////TCU 08/07 Q1012

EXPIRED METARs :
  • 280800Z AUTO 20006KT 9999 -RA SCT017/// BKN027/// OVC052/// ///TCU 08/07 Q1012
  • 280730Z AUTO 20007KT 9999 -DZ FEW011/// BKN018/// BKN033/// ///TCU 08/07 Q1012
  • 280700Z AUTO 19005KT 7000 -RA BKN011/// BKN030/// OVC054/// ///TCU 08/07 Q1012
  • 280630Z AUTO 14002KT 9999 -DZ BKN014 BKN030 BKN038 08/06 Q1012
  • 280600Z AUTO 16004KT 9999 -DZ FEW020 SCT054 BKN068 07/06 Q1012

TAF N/A



MET'MAP, your aeronautical weather chart ! - Copyright ORBIFLY December 2007 - Disclaimer

ORBIFLY MET'MAP TEAM :

Programming & Development : Alexandra Zaïnal
Original concept : Baudouin d'Aumeries
Technical & hardware support : Manuel Goepfert
Assistance : Marc-Olivier Méhu




SOURCES & CREDITS :

   NOAA